createdAt,value
2023-05-01T00:02:09.742Z,10.27
2023-05-01T00:05:12.474Z,7.60
2023-05-01T00:08:16.033Z,10.82
2023-05-01T00:11:18.667Z,8.45
2023-05-01T00:14:21.105Z,7.47
2023-05-01T00:17:24.021Z,8.90
2023-05-01T00:20:30.105Z,11.75
2023-05-01T00:23:32.777Z,8.15
2023-05-01T00:26:35.094Z,10.77
2023-05-01T00:29:38.041Z,10.75
2023-05-01T00:32:40.836Z,9.60
2023-05-01T00:35:46.818Z,9.80
2023-05-01T00:38:49.196Z,8.45
2023-05-01T00:41:51.949Z,9.43
2023-05-01T00:44:54.646Z,9.60
2023-05-01T00:47:57.309Z,7.50
2023-05-01T00:51:01.249Z,9.13
2023-05-01T00:54:03.935Z,8.30
2023-05-01T00:57:08.327Z,9.27
2023-05-01T01:00:12.455Z,8.45
2023-05-01T01:03:14.951Z,10.03
2023-05-01T01:06:27.836Z,10.45
2023-05-01T01:09:55.373Z,8.38
2023-05-01T01:13:10.368Z,9.30
2023-05-01T01:16:20.624Z,9.15
2023-05-01T01:19:52.252Z,8.23
2023-05-01T01:23:11.834Z,8.38
2023-05-01T01:26:52.317Z,10.27
2023-05-01T01:30:25.906Z,9.18
2023-05-01T01:33:48.298Z,10.40
2023-05-01T01:37:13.290Z,10.20
2023-05-01T01:40:19.048Z,9.13
2023-05-01T01:43:22.847Z,9.95
2023-05-01T01:46:26.880Z,13.07
2023-05-01T01:49:31.484Z,10.82
2023-05-01T01:52:37.253Z,10.10
2023-05-01T01:55:41.519Z,9.02
2023-05-01T01:58:46.278Z,11.15
2023-05-01T02:01:50.715Z,10.57
2023-05-01T02:04:57.123Z,11.82
2023-05-01T02:08:00.634Z,12.53
2023-05-01T02:11:05.130Z,11.57
2023-05-01T02:14:09.287Z,10.48
2023-05-01T02:17:13.658Z,12.20
2023-05-01T02:20:16.618Z,13.15
2023-05-01T02:23:19.311Z,10.23
2023-05-01T02:26:26.610Z,14.13
2023-05-01T02:29:29.454Z,11.35
2023-05-01T02:32:32.124Z,11.32
2023-05-01T02:35:41.510Z,12.37
2023-05-01T02:38:44.371Z,11.03
2023-05-01T02:41:48.822Z,19.48
2023-05-01T02:44:58.300Z,12.30
2023-05-01T02:48:04.082Z,11.00
2023-05-01T02:51:08.002Z,9.15
2023-05-01T02:54:10.762Z,10.03
2023-05-01T02:57:13.708Z,9.27
2023-05-01T03:00:16.770Z,10.63
2023-05-01T03:03:19.667Z,11.30
2023-05-01T03:06:22.182Z,10.25
2023-05-01T03:09:25.803Z,11.23
2023-05-01T03:12:28.092Z,10.23
2023-05-01T03:15:30.789Z,11.50
2023-05-01T03:18:33.264Z,10.27
2023-05-01T03:21:37.147Z,11.20
2023-05-01T03:24:39.445Z,11.33
2023-05-01T03:27:42.506Z,12.05
2023-05-01T03:30:45.156Z,11.93
2023-05-01T03:33:48.076Z,11.40
2023-05-01T03:36:51.421Z,10.73
2023-05-01T03:39:54.474Z,14.93
2023-05-01T03:42:59.164Z,10.73
2023-05-01T03:46:01.942Z,12.57
2023-05-01T03:49:05.218Z,14.70
2023-05-01T03:52:08.300Z,15.00
2023-05-01T03:55:11.149Z,12.80
2023-05-01T03:58:14.014Z,12.43
2023-05-01T04:01:16.349Z,12.13
2023-05-01T04:04:19.314Z,13.38
2023-05-01T04:07:21.970Z,14.85
2023-05-01T04:10:25.266Z,12.90
2023-05-01T04:13:28.118Z,13.05
2023-05-01T04:16:31.779Z,14.82
2023-05-01T04:19:34.861Z,13.90
2023-05-01T04:22:37.685Z,12.77
2023-05-01T04:25:40.178Z,14.30
2023-05-01T04:28:43.294Z,12.90
2023-05-01T04:31:46.587Z,13.60
2023-05-01T04:34:49.434Z,16.33
2023-05-01T04:37:52.238Z,13.38
2023-05-01T04:40:54.937Z,13.20
2023-05-01T04:43:57.308Z,18.98
2023-05-01T04:47:02.973Z,13.95
2023-05-01T04:50:06.690Z,14.18
2023-05-01T04:53:09.703Z,13.50
2023-05-01T04:56:12.245Z,13.03
2023-05-01T04:59:15.155Z,13.07
2023-05-01T05:02:17.578Z,14.75
2023-05-01T05:05:20.280Z,15.32
2023-05-01T05:08:23.170Z,14.82
2023-05-01T05:11:26.597Z,15.73
2023-05-01T05:14:31.007Z,14.00
2023-05-01T05:17:35.819Z,12.48
2023-05-01T05:20:39.989Z,15.95
2023-05-01T05:23:42.619Z,13.27
2023-05-01T05:26:44.953Z,13.23
2023-05-01T05:29:47.585Z,13.00
2023-05-01T05:32:50.113Z,13.82
2023-05-01T05:35:53.087Z,14.40
2023-05-01T05:38:55.764Z,13.48
2023-05-01T05:41:58.988Z,15.50
2023-05-01T05:45:01.753Z,11.88
2023-05-01T05:48:04.975Z,11.65
2023-05-01T05:51:07.410Z,11.68
2023-05-01T05:54:10.602Z,12.57
2023-05-01T05:57:13.583Z,12.37
2023-05-01T06:00:18.606Z,10.70
2023-05-01T06:03:23.041Z,10.10
2023-05-01T06:06:26.519Z,13.23
2023-05-01T06:09:29.516Z,12.82
2023-05-01T06:12:33.200Z,11.40
2023-05-01T06:15:38.292Z,10.13
2023-05-01T06:18:42.138Z,9.23
2023-05-01T06:21:46.758Z,8.95
2023-05-01T06:24:49.591Z,9.75
2023-05-01T06:27:52.376Z,8.97
2023-05-01T06:30:54.944Z,9.45
2023-05-01T06:33:57.792Z,9.23
2023-05-01T06:37:01.236Z,7.10
2023-05-01T06:40:05.871Z,7.95
2023-05-01T06:43:08.370Z,9.03
2023-05-01T06:46:11.184Z,10.77
2023-05-01T06:49:13.616Z,8.30
2023-05-01T06:52:16.391Z,6.50
2023-05-01T06:55:18.842Z,7.32
2023-05-01T06:58:24.065Z,7.77
2023-05-01T07:01:27.974Z,8.60
2023-05-01T07:04:32.326Z,9.90
2023-05-01T07:07:35.086Z,8.70
2023-05-01T07:10:39.290Z,7.85
2023-05-01T07:13:43.833Z,9.73
2023-05-01T07:16:46.743Z,8.68
2023-05-01T07:19:50.204Z,8.13
2023-05-01T07:22:52.842Z,7.45
2023-05-01T07:25:55.709Z,7.28
2023-05-01T07:28:58.302Z,8.63
2023-05-01T07:32:01.497Z,7.30
2023-05-01T07:35:05.104Z,5.93
2023-05-01T07:38:07.988Z,8.10
2023-05-01T07:41:10.690Z,7.37
2023-05-01T07:44:13.943Z,7.77
2023-05-01T07:47:16.556Z,8.38
2023-05-01T07:50:18.861Z,6.45
2023-05-01T07:53:22.838Z,8.50
2023-05-01T07:56:25.161Z,5.53
2023-05-01T07:59:28.374Z,8.13
2023-05-01T08:02:30.828Z,7.43
2023-05-01T08:05:33.695Z,6.40
2023-05-01T08:08:36.027Z,6.20
2023-05-01T08:11:38.638Z,6.43
2023-05-01T08:14:41.050Z,8.53
2023-05-01T08:17:43.740Z,7.62
2023-05-01T08:20:48.090Z,7.00
2023-05-01T08:23:51.157Z,7.20
2023-05-01T08:26:53.566Z,7.40
2023-05-01T08:29:56.584Z,7.13
2023-05-01T08:32:59.180Z,8.57
2023-05-01T08:36:02.056Z,8.57
2023-05-01T08:39:05.212Z,5.57
2023-05-01T08:42:08.381Z,6.75
2023-05-01T08:45:11.912Z,4.90
2023-05-01T08:48:18.607Z,6.97
2023-05-01T08:51:23.039Z,6.60
2023-05-01T08:54:28.451Z,8.63
2023-05-01T08:57:32.301Z,5.97
2023-05-01T09:00:37.189Z,8.23
2023-05-01T09:03:39.597Z,5.05
2023-05-01T09:06:45.035Z,7.30
2023-05-01T09:09:47.584Z,6.95
2023-05-01T09:12:56.241Z,7.70
2023-05-01T09:16:00.487Z,9.60
2023-05-01T09:19:03.556Z,6.57
2023-05-01T09:22:05.936Z,7.65
2023-05-01T09:25:10.961Z,9.38
2023-05-01T09:28:13.389Z,6.65
2023-05-01T09:31:23.466Z,6.87
2023-05-01T09:34:25.887Z,7.25
2023-05-01T09:37:30.384Z,5.95
2023-05-01T09:40:32.904Z,5.85
2023-05-01T09:43:35.699Z,6.20
2023-05-01T09:46:42.368Z,5.83
2023-05-01T09:49:48.373Z,5.85
2023-05-01T09:52:52.687Z,7.62
2023-05-01T09:56:04.503Z,5.80
2023-05-01T09:59:18.115Z,8.27
2023-05-01T10:02:30.925Z,7.43
2023-05-01T10:05:43.315Z,6.45
2023-05-01T10:08:50.703Z,5.78
2023-05-01T10:11:57.644Z,5.53
2023-05-01T10:15:05.523Z,7.70
2023-05-01T10:18:14.754Z,5.20
2023-05-01T10:21:17.354Z,5.50
2023-05-01T10:24:20.518Z,5.93
2023-05-01T10:27:24.621Z,5.75
2023-05-01T10:30:27.662Z,5.60
2023-05-01T10:33:30.152Z,9.47
2023-05-01T10:36:39.345Z,6.53
2023-05-01T10:39:41.665Z,6.75
2023-05-01T10:43:27.837Z,6.15
2023-05-01T10:46:30.589Z,6.15
2023-05-01T10:50:12.272Z,6.90
2023-05-01T10:53:15.627Z,6.18
2023-05-01T10:56:25.450Z,6.62
2023-05-01T10:59:58.997Z,7.57
2023-05-01T11:03:23.498Z,6.70
2023-05-01T11:06:26.346Z,8.77
2023-05-01T11:09:49.239Z,6.87
2023-05-01T11:12:52.871Z,6.95
2023-05-01T11:15:55.511Z,5.32
2023-05-01T11:18:57.837Z,9.45
2023-05-01T11:22:01.057Z,5.23
2023-05-01T11:25:05.038Z,6.20
2023-05-01T11:28:09.612Z,5.82
2023-05-01T11:31:18.441Z,5.80
2023-05-01T11:34:21.291Z,6.62
2023-05-01T11:37:41.032Z,4.83
2023-05-01T11:40:43.856Z,4.78
2023-05-01T11:43:54.126Z,5.57
2023-05-01T11:47:01.258Z,7.07
2023-05-01T11:50:03.804Z,4.85
2023-05-01T11:53:17.290Z,7.03
2023-05-01T11:56:27.253Z,6.00
2023-05-01T11:59:30.731Z,7.32
2023-05-01T12:02:33.465Z,5.10
2023-05-01T12:05:38.377Z,8.48
2023-05-01T12:08:47.484Z,4.50
2023-05-01T12:11:54.060Z,4.60
2023-05-01T12:14:56.660Z,6.35
2023-05-01T12:17:59.502Z,5.35
2023-05-01T12:21:02.442Z,6.82
2023-05-01T12:24:16.948Z,5.77
2023-05-01T12:27:20.031Z,5.47
2023-05-01T12:30:27.191Z,6.03
2023-05-01T12:33:30.135Z,5.53
2023-05-01T12:36:35.831Z,5.30
2023-05-01T12:39:44.666Z,5.57
2023-05-01T12:42:56.196Z,4.78
2023-05-01T12:46:02.036Z,5.47
2023-05-01T12:49:05.077Z,4.55
2023-05-01T12:52:11.266Z,5.43
2023-05-01T12:55:19.292Z,5.47
2023-05-01T12:58:37.794Z,5.40
2023-05-01T13:01:41.151Z,5.95
2023-05-01T13:04:44.798Z,4.00
2023-05-01T13:07:51.906Z,6.47
2023-05-01T13:10:57.160Z,5.37
2023-05-01T13:14:07.967Z,7.43
2023-05-01T13:17:11.774Z,5.03
2023-05-01T13:20:15.623Z,4.93
2023-05-01T13:23:18.056Z,5.47
2023-05-01T13:26:36.154Z,4.70
2023-05-01T13:29:39.750Z,6.85
2023-05-01T13:32:42.530Z,5.32
2023-05-01T13:35:44.910Z,5.28
2023-05-01T13:38:53.908Z,5.10
2023-05-01T13:41:56.383Z,6.63
2023-05-01T13:44:59.115Z,7.65
2023-05-01T13:48:03.043Z,4.82
2023-05-01T13:51:08.630Z,6.90
2023-05-01T13:54:11.500Z,4.62
2023-05-01T13:57:16.009Z,6.63
2023-05-01T14:00:18.894Z,6.60
2023-05-01T14:03:22.538Z,4.43
2023-05-01T14:06:25.145Z,4.85
2023-05-01T14:09:28.268Z,4.75
2023-05-01T14:12:32.312Z,5.57
2023-05-01T14:15:35.110Z,4.65
2023-05-01T14:18:45.202Z,5.82
2023-05-01T14:21:48.011Z,5.68
2023-05-01T14:24:51.197Z,6.80
2023-05-01T14:27:55.319Z,4.30
2023-05-01T14:30:57.948Z,5.25
2023-05-01T14:34:03.943Z,4.32
2023-05-01T14:37:06.411Z,5.70
2023-05-01T14:40:13.122Z,4.25
2023-05-01T14:43:22.099Z,4.53
2023-05-01T14:46:33.486Z,5.15
2023-05-01T14:49:36.035Z,4.62
2023-05-01T14:52:39.465Z,5.20
2023-05-01T14:55:42.232Z,7.78
2023-05-01T14:58:44.882Z,4.27
2023-05-01T15:01:47.257Z,4.90
2023-05-01T15:04:49.852Z,4.40
2023-05-01T15:07:57.064Z,5.37
2023-05-01T15:11:04.023Z,4.37
2023-05-01T15:14:06.591Z,5.43
2023-05-01T15:17:10.436Z,4.72
2023-05-01T15:20:13.715Z,5.07
2023-05-01T15:23:16.722Z,3.92
2023-05-01T15:26:19.219Z,4.47
2023-05-01T15:29:21.888Z,5.63
2023-05-01T15:32:24.556Z,5.43
2023-05-01T15:35:27.290Z,5.37
2023-05-01T15:38:30.205Z,5.35
2023-05-01T15:41:32.983Z,4.70
2023-05-01T15:44:35.542Z,5.37
2023-05-01T15:47:38.438Z,5.43
2023-05-01T15:50:41.035Z,6.40
2023-05-01T15:53:44.098Z,6.28
2023-05-01T15:56:46.434Z,5.60
2023-05-01T15:59:53.907Z,6.00
2023-05-01T16:02:56.632Z,4.80
2023-05-01T16:05:59.776Z,4.95
2023-05-01T16:09:03.001Z,5.78
2023-05-01T16:12:07.480Z,4.60
2023-05-01T16:15:10.672Z,4.23
2023-05-01T16:18:19.688Z,4.53
2023-05-01T16:21:23.663Z,3.90
2023-05-01T16:24:26.481Z,5.72
2023-05-01T16:27:29.135Z,3.90
2023-05-01T16:30:31.790Z,5.40
2023-05-01T16:33:34.143Z,7.32
2023-05-01T16:36:42.421Z,5.75
2023-05-01T16:39:44.863Z,5.43
2023-05-01T16:42:54.846Z,4.55
2023-05-01T16:45:58.326Z,4.23
2023-05-01T16:49:01.196Z,5.28
2023-05-01T16:52:05.975Z,5.87
2023-05-01T16:55:10.046Z,5.32
2023-05-01T16:58:12.428Z,4.75
2023-05-01T17:01:15.550Z,5.17
2023-05-01T17:04:18.086Z,4.80
2023-05-01T17:07:23.195Z,4.15
2023-05-01T17:10:25.532Z,5.97
2023-05-01T17:13:28.236Z,6.78
2023-05-01T17:16:32.420Z,4.93
2023-05-01T17:19:35.472Z,5.10
2023-05-01T17:22:37.903Z,5.60
2023-05-01T17:25:40.576Z,5.03
2023-05-01T17:28:46.211Z,6.57
2023-05-01T17:31:48.967Z,5.30
2023-05-01T17:34:51.598Z,16.10
2023-05-01T17:37:54.253Z,5.75
2023-05-01T17:40:56.584Z,5.37
2023-05-01T17:43:59.287Z,5.28
2023-05-01T17:47:01.688Z,4.67
2023-05-01T17:50:05.044Z,5.30
2023-05-01T17:53:07.382Z,5.68
2023-05-01T17:56:10.060Z,5.57
2023-05-01T17:59:12.829Z,5.80
2023-05-01T18:02:15.690Z,12.00
2023-05-01T18:05:18.496Z,7.07
2023-05-01T18:08:20.865Z,9.50
2023-05-01T18:11:23.646Z,6.43
2023-05-01T18:14:25.949Z,7.03
2023-05-01T18:17:28.635Z,8.57
2023-05-01T18:20:31.151Z,9.40
2023-05-01T18:23:35.700Z,6.50
2023-05-01T18:26:38.021Z,6.47
2023-05-01T18:29:40.707Z,6.18
2023-05-01T18:32:48.184Z,5.93
2023-05-01T18:35:51.106Z,7.45
2023-05-01T18:38:53.912Z,7.00
2023-05-01T18:41:56.655Z,8.32
2023-05-01T18:44:58.980Z,7.57
2023-05-01T18:48:01.787Z,6.27
2023-05-01T18:51:08.924Z,8.23
2023-05-01T18:54:12.348Z,17.30
2023-05-01T18:57:14.763Z,9.52
2023-05-01T19:00:17.633Z,6.18
2023-05-01T19:03:20.102Z,7.67
2023-05-01T19:06:22.910Z,10.13
2023-05-01T19:09:25.619Z,6.87
2023-05-01T19:12:28.730Z,10.10
2023-05-01T19:15:31.192Z,7.85
2023-05-01T19:18:34.024Z,6.63
2023-05-01T19:21:36.647Z,6.93
2023-05-01T19:24:40.028Z,7.00
2023-05-01T19:27:42.590Z,7.30
2023-05-01T19:30:45.347Z,8.55
2023-05-01T19:33:48.260Z,6.63
2023-05-01T19:36:56.465Z,6.90
2023-05-01T19:39:59.251Z,5.62
2023-05-01T19:43:02.160Z,6.12
2023-05-01T19:46:05.252Z,11.52
2023-05-01T19:49:08.492Z,8.40
2023-05-01T19:52:10.862Z,6.47
2023-05-01T19:55:14.876Z,7.45
2023-05-01T19:58:17.618Z,6.25
2023-05-01T20:01:20.570Z,6.43
2023-05-01T20:04:24.195Z,8.30
2023-05-01T20:07:27.902Z,7.43
2023-05-01T20:10:31.239Z,7.60
2023-05-01T20:13:34.015Z,6.57
2023-05-01T20:16:36.827Z,7.87
2023-05-01T20:19:39.801Z,8.17
2023-05-01T20:22:42.881Z,6.90
2023-05-01T20:25:48.477Z,6.43
2023-05-01T20:28:52.269Z,9.35
2023-05-01T20:31:54.989Z,7.28
2023-05-01T20:34:57.939Z,8.90
2023-05-01T20:38:01.415Z,6.32
2023-05-01T20:41:04.110Z,6.90
2023-05-01T20:44:07.069Z,7.55
2023-05-01T20:47:09.950Z,6.50
2023-05-01T20:50:12.456Z,6.40
2023-05-01T20:53:15.315Z,10.50
2023-05-01T20:56:17.741Z,6.57
2023-05-01T20:59:20.540Z,8.65
2023-05-01T21:02:22.928Z,6.55
2023-05-01T21:05:25.685Z,8.03
2023-05-01T21:08:28.694Z,6.68
2023-05-01T21:11:31.554Z,7.75
2023-05-01T21:14:33.921Z,8.85
2023-05-01T21:17:38.328Z,6.22
2023-05-01T21:20:41.421Z,9.77
2023-05-01T21:23:51.032Z,9.80
2023-05-01T21:26:56.724Z,7.85
2023-05-01T21:30:01.841Z,6.60
2023-05-01T21:33:08.581Z,6.93
2023-05-01T21:36:12.767Z,6.83
2023-05-01T21:39:15.868Z,7.07
2023-05-01T21:42:18.631Z,8.60
2023-05-01T21:45:21.099Z,8.73
2023-05-01T21:48:23.806Z,7.55
2023-05-01T21:51:28.532Z,9.60
2023-05-01T21:54:31.867Z,8.68
2023-05-01T21:57:39.246Z,8.40
2023-05-01T22:00:42.276Z,7.25
2023-05-01T22:03:46.911Z,11.00
2023-05-01T22:06:50.131Z,9.57
2023-05-01T22:09:52.975Z,6.95
2023-05-01T22:12:55.608Z,6.43
2023-05-01T22:15:58.706Z,7.22
2023-05-01T22:19:01.184Z,9.48
2023-05-01T22:22:03.856Z,7.67
2023-05-01T22:25:07.162Z,7.03
2023-05-01T22:28:09.754Z,8.73
2023-05-01T22:31:12.081Z,7.18
2023-05-01T22:34:14.818Z,9.80
2023-05-01T22:37:18.200Z,8.20
2023-05-01T22:40:20.996Z,8.43
2023-05-01T22:43:24.005Z,7.55
2023-05-01T22:46:26.852Z,6.47
2023-05-01T22:49:29.238Z,8.10
2023-05-01T22:52:32.133Z,6.57
2023-05-01T22:55:34.517Z,9.65
2023-05-01T22:58:37.153Z,7.97
2023-05-01T23:01:39.463Z,10.30
2023-05-01T23:04:43.046Z,8.85
2023-05-01T23:07:45.690Z,7.83
2023-05-01T23:10:48.339Z,6.20
2023-05-01T23:13:50.712Z,9.98
2023-05-01T23:16:53.466Z,7.82
2023-05-01T23:19:58.397Z,6.62
2023-05-01T23:23:05.284Z,7.17
2023-05-01T23:26:07.691Z,6.85
2023-05-01T23:29:12.516Z,7.12
2023-05-01T23:32:28.716Z,6.75
2023-05-01T23:35:31.503Z,6.82
2023-05-01T23:38:33.878Z,6.80
2023-05-01T23:41:36.724Z,7.97
2023-05-01T23:44:39.270Z,8.43
2023-05-01T23:47:41.935Z,6.10
2023-05-01T23:50:44.317Z,9.00
2023-05-01T23:53:47.049Z,6.83
2023-05-01T23:56:49.369Z,6.20
2023-05-01T23:59:52.611Z,11.60
